Time;durP1;ratioP1;P1;durP2;ratioP2;P2;SDS_P1;SDS_P2;PMS_P1;PMS_P2;Temp;Humidity;BMP_temperature;BMP_pressure;BME280_temperature;BME280_humidity;BME280_pressure;Samples;Min_cycle;Max_cycle;Signal;HPM_P1;HPM_P2
2021/06/14 00:00:27;;;;;;;;;7.25;5.75;;;;;;;;5007099;28;8753;-94
2021/06/14 00:02:55;;;;;;;;;6.00;6.00;;;;;;;;5009664;28;8868;-78
2021/06/14 00:05:30;;;;;;;;;5.00;5.00;;;;;;;;5001758;28;9024;-88
2021/06/14 00:08:00;;;;;;;;;7.50;6.00;;;;;;;;5013116;28;8894;-90
2021/06/14 00:10:28;;;;;;;;;4.00;4.00;;;;;;;;5007410;28;8994;-96
2021/06/14 00:12:56;;;;;;;;;5.00;5.00;;;;;;;;5008307;28;8868;-92
2021/06/14 00:15:24;;;;;;;;;8.25;5.25;;;;;;;;5001674;28;8887;-91
2021/06/14 00:17:51;;;;;;;;;6.00;6.00;;;;;;;;5005629;28;8967;-96
2021/06/14 00:20:20;;;;;;;;;4.00;4.00;;;;;;;;5004308;28;8886;-93
2021/06/14 00:22:48;;;;;;;;;5.75;5.75;;;;;;;;5004628;28;8860;-91
2021/06/14 00:25:19;;;;;;;;;4.25;4.25;;;;;;;;5004115;28;8886;-95
2021/06/14 00:27:47;;;;;;;;;4.50;4.50;;;;;;;;5005941;28;8868;-85
2021/06/14 00:30:15;;;;;;;;;6.50;5.00;;;;;;;;5004847;28;9786;-86
2021/06/14 00:32:43;;;;;;;;;6.00;4.75;;;;;;;;5002485;28;8894;-93
2021/06/14 00:35:10;;;;;;;;;5.00;5.00;;;;;;;;5004456;28;8977;-91
2021/06/14 00:37:38;;;;;;;;;4.50;4.50;;;;;;;;5004264;28;8886;-82
2021/06/14 00:40:07;;;;;;;;;7.00;5.50;;;;;;;;5007168;28;8986;-88
2021/06/14 00:42:35;;;;;;;;;5.00;5.00;;;;;;;;5010198;28;8868;-93
2021/06/14 00:45:08;;;;;;;;;4.25;3.25;;;;;;;;5017714;28;8939;-75
2021/06/14 00:47:43;;;;;;;;;5.00;5.00;;;;;;;;5029821;28;8916;-75
2021/06/14 00:50:11;;;;;;;;;5.00;3.25;;;;;;;;5029597;28;8860;-75
2021/06/14 00:52:39;;;;;;;;;5.50;5.00;;;;;;;;5029563;28;8864;-75
2021/06/14 00:55:07;;;;;;;;;4.00;4.00;;;;;;;;5028277;28;8995;-75
2021/06/14 00:57:36;;;;;;;;;3.25;3.25;;;;;;;;5029243;28;8864;-75
2021/06/14 01:00:04;;;;;;;;;5.00;5.00;;;;;;;;5032664;28;8865;-75
2021/06/14 01:02:31;;;;;;;;;7.00;5.00;;;;;;;;5029555;28;8922;-75
2021/06/14 01:04:59;;;;;;;;;6.00;5.50;;;;;;;;5021365;28;8851;-75
2021/06/14 01:07:27;;;;;;;;;5.00;5.00;;;;;;;;5028400;28;8828;-75
2021/06/14 01:09:54;;;;;;;;;3.75;3.75;;;;;;;;5038285;28;8891;-91
2021/06/14 01:12:25;;;;;;;;;5.50;5.50;;;;;;;;5014105;28;9030;-87
2021/06/14 01:15:08;;;;;;;;;8.75;5.25;;;;;;;;5015943;28;8840;-92
2021/06/14 01:18:01;;;;;;;;;8.00;6.00;;;;;;;;5028596;28;8863;-74
2021/06/14 01:20:50;;;;;;;;;5.75;5.75;;;;;;;;5029434;28;8952;-96
2021/06/14 01:23:46;;;;;;;;;9.00;6.33;;;;;;;;5010125;28;8857;-93
2021/06/14 01:26:24;;;;;;;;;9.00;5.25;;;;;;;;4988623;28;8960;-86
2021/06/14 01:28:57;;;;;;;;;7.00;7.00;;;;;;;;5018934;28;9964;-96
2021/06/14 01:31:28;;;;;;;;;9.00;6.33;;;;;;;;5006141;28;8909;-95
2021/06/14 01:33:56;;;;;;;;;6.00;6.00;;;;;;;;5013267;28;8953;-86
2021/06/14 01:36:51;;;;;;;;;6.00;6.00;;;;;;;;5014949;28;9791;-91
2021/06/14 01:39:21;;;;;;;;;6.00;6.00;;;;;;;;5027926;28;8883;-94
2021/06/14 01:41:49;;;;;;;;;6.33;6.33;;;;;;;;5026779;28;9018;-94
2021/06/14 01:44:18;;;;;;;;;5.67;5.67;;;;;;;;5014692;28;9071;-96
2021/06/14 01:46:48;;;;;;;;;6.00;6.00;;;;;;;;5011679;28;9088;-94
2021/06/14 01:49:16;;;;;;;;;7.00;7.00;;;;;;;;4995452;28;9078;-95
2021/06/14 01:51:43;;;;;;;;;5.00;5.00;;;;;;;;5010300;28;9082;-91
2021/06/14 01:54:11;;;;;;;;;7.67;6.00;;;;;;;;5021297;28;8911;-80
2021/06/14 01:56:42;;;;;;;;;4.00;4.00;;;;;;;;5036317;28;9003;-75
2021/06/14 01:59:15;;;;;;;;;9.00;6.33;;;;;;;;5036617;28;8967;-74
2021/06/14 02:01:44;;;;;;;;;6.00;6.00;;;;;;;;5032047;28;9067;-77
2021/06/14 02:04:12;;;;;;;;;8.33;6.33;;;;;;;;5035467;28;9016;-74
2021/06/14 02:06:42;;;;;;;;;6.00;6.00;;;;;;;;5032708;28;8939;-75
2021/06/14 02:09:12;;;;;;;;;4.67;4.67;;;;;;;;5031868;28;9024;-74
2021/06/14 02:11:42;;;;;;;;;6.67;6.67;;;;;;;;5020154;28;9905;-86
2021/06/14 02:14:11;;;;;;;;;6.33;6.00;;;;;;;;5007587;28;8968;-86
2021/06/14 02:16:41;;;;;;;;;4.67;4.00;;;;;;;;5001509;28;9183;-83
2021/06/14 02:19:10;;;;;;;;;6.33;6.33;;;;;;;;5010039;28;8992;-89
2021/06/14 02:21:37;;;;;;;;;6.67;6.67;;;;;;;;5002842;28;9752;-84
2021/06/14 02:24:05;;;;;;;;;5.50;5.50;;;;;;;;5011226;28;9033;-92
2021/06/14 02:26:33;;;;;;;;;6.00;6.00;;;;;;;;5005499;28;8852;-83
2021/06/14 02:29:00;;;;;;;;;7.00;7.00;;;;;;;;5007444;28;8975;-91
2021/06/14 02:31:27;;;;;;;;;4.67;4.67;;;;;;;;5005762;28;9102;-88
2021/06/14 02:33:54;;;;;;;;;5.67;5.67;;;;;;;;5005822;28;9762;-79
2021/06/14 02:36:24;;;;;;;;;5.67;5.00;;;;;;;;5007559;28;8981;-93
2021/06/14 02:38:51;;;;;;;;;8.33;8.33;;;;;;;;5005268;28;9051;-78
2021/06/14 02:41:19;;;;;;;;;6.00;6.00;;;;;;;;5013999;28;9065;-84
2021/06/14 02:43:47;;;;;;;;;7.67;5.00;;;;;;;;5012307;28;9167;-92
2021/06/14 02:46:14;;;;;;;;;9.00;7.00;;;;;;;;5006084;28;9075;-93
2021/06/14 02:48:45;;;;;;;;;4.00;4.00;;;;;;;;5008320;28;9000;-93
2021/06/14 02:51:12;;;;;;;;;5.00;5.00;;;;;;;;5005184;28;9037;-83
2021/06/14 02:53:41;;;;;;;;;9.00;5.33;;;;;;;;5016752;28;9211;-95
2021/06/14 02:56:10;;;;;;;;;9.67;7.67;;;;;;;;5003535;28;9102;-95
2021/06/14 02:58:39;;;;;;;;;7.33;5.00;;;;;;;;5006693;28;8960;-91
2021/06/14 03:01:09;;;;;;;;;4.67;4.00;;;;;;;;5005124;28;9070;-96
2021/06/14 03:03:38;;;;;;;;;6.00;5.67;;;;;;;;5006820;28;9120;-90
2021/06/14 03:06:12;;;;;;;;;5.00;5.00;;;;;;;;5017673;28;9084;-89
2021/06/14 03:08:40;;;;;;;;;5.33;4.67;;;;;;;;5019264;28;9041;-77
2021/06/14 03:11:08;;;;;;;;;8.33;6.00;;;;;;;;5018320;28;9215;-95
2021/06/14 03:13:36;;;;;;;;;4.00;4.00;;;;;;;;5019062;28;9197;-81
2021/06/14 03:16:04;;;;;;;;;7.33;6.00;;;;;;;;5006205;28;9173;-91
2021/06/14 03:18:32;;;;;;;;;8.00;8.00;;;;;;;;5013769;28;9253;-84
2021/06/14 03:21:00;;;;;;;;;6.00;6.00;;;;;;;;5005441;28;9204;-89
2021/06/14 03:23:27;;;;;;;;;8.00;6.00;;;;;;;;5009925;28;9209;-92
2021/06/14 03:26:02;;;;;;;;;6.00;6.00;;;;;;;;5011944;28;9181;-93
2021/06/14 03:28:29;;;;;;;;;9.00;8.33;;;;;;;;5025529;28;9252;-81
2021/06/14 03:30:56;;;;;;;;;8.67;6.00;;;;;;;;5020488;28;9322;-81
2021/06/14 03:33:24;;;;;;;;;6.00;6.00;;;;;;;;5032298;28;9363;-82
2021/06/14 03:35:54;;;;;;;;;8.67;6.00;;;;;;;;5014062;28;9354;-79
2021/06/14 03:38:22;;;;;;;;;6.67;5.00;;;;;;;;5015481;28;9380;-83
2021/06/14 03:40:52;;;;;;;;;6.67;5.00;;;;;;;;5025747;28;9427;-79
2021/06/14 03:43:35;;;;;;;;;4.33;4.33;;;;;;;;5022617;28;9404;-91
2021/06/14 03:46:02;;;;;;;;;5.00;5.00;;;;;;;;5016627;28;10209;-81
2021/06/14 03:48:30;;;;;;;;;5.33;5.00;;;;;;;;5015295;28;9489;-93
2021/06/14 03:50:59;;;;;;;;;5.00;5.00;;;;;;;;5017228;28;10175;-77
2021/06/14 03:53:31;;;;;;;;;6.00;6.00;;;;;;;;5026954;28;9415;-93
2021/06/14 03:56:06;;;;;;;;;8.00;7.00;;;;;;;;4955637;28;9464;-91
2021/06/14 03:58:35;;;;;;;;;8.00;8.00;;;;;;;;5016494;28;9409;-78
2021/06/14 04:01:03;;;;;;;;;8.00;8.00;;;;;;;;5024258;28;9489;-95
2021/06/14 04:03:31;;;;;;;;;8.00;8.00;;;;;;;;5014452;28;9646;-86
2021/06/14 04:05:59;;;;;;;;;10.75;9.00;;;;;;;;5018201;28;9665;-90
2021/06/14 04:08:27;;;;;;;;;10.25;9.25;;;;;;;;5033813;28;9495;-83
2021/06/14 04:10:55;;;;;;;;;7.25;7.25;;;;;;;;5014579;28;9677;-75
2021/06/14 04:13:29;;;;;;;;;7.00;7.00;;;;;;;;5014869;28;9548;-76
2021/06/14 04:15:58;;;;;;;;;11.00;11.00;;;;;;;;5005264;28;9419;-88
2021/06/14 04:18:25;;;;;;;;;11.50;9.75;;;;;;;;5013970;28;10353;-87
2021/06/14 04:20:52;;;;;;;;;11.50;11.50;;;;;;;;5003741;28;9691;-90
2021/06/14 04:23:19;;;;;;;;;6.00;6.00;;;;;;;;5006179;28;9650;-89
2021/06/14 04:25:47;;;;;;;;;6.00;6.00;;;;;;;;4997521;28;9452;-87
2021/06/14 04:28:14;;;;;;;;;9.33;9.33;;;;;;;;5003375;28;9347;-84
2021/06/14 04:30:41;;;;;;;;;9.00;8.33;;;;;;;;5002712;28;9504;-82
2021/06/14 04:33:10;;;;;;;;;5.67;5.67;;;;;;;;5004125;28;9441;-87
2021/06/14 04:35:37;;;;;;;;;14.00;10.00;;;;;;;;5007332;28;9568;-85
2021/06/14 04:38:05;;;;;;;;;10.67;9.00;;;;;;;;5008161;28;9411;-85
2021/06/14 04:40:32;;;;;;;;;13.00;8.33;;;;;;;;5006680;28;9351;-82
2021/06/14 04:43:01;;;;;;;;;10.00;10.00;;;;;;;;5012507;28;9356;-84
2021/06/14 04:45:28;;;;;;;;;6.00;6.00;;;;;;;;5005580;28;9264;-82
2021/06/14 04:47:56;;;;;;;;;8.00;8.00;;;;;;;;5007221;28;9277;-79
2021/06/14 04:50:24;;;;;;;;;9.00;9.00;;;;;;;;5006082;28;9241;-84
2021/06/14 04:52:51;;;;;;;;;6.00;6.00;;;;;;;;5008369;28;9195;-81
2021/06/14 04:55:19;;;;;;;;;11.00;9.33;;;;;;;;5007522;28;9422;-84
2021/06/14 04:57:46;;;;;;;;;3.00;3.00;;;;;;;;5016772;28;9284;-82
2021/06/14 05:00:15;;;;;;;;;10.00;10.00;;;;;;;;5007577;28;9040;-82
2021/06/14 05:02:43;;;;;;;;;12.33;9.00;;;;;;;;5011410;28;9243;-80
2021/06/14 05:05:11;;;;;;;;;9.00;9.00;;;;;;;;5008118;28;9103;-84
2021/06/14 05:07:41;;;;;;;;;7.00;7.00;;;;;;;;5010593;28;9025;-80
2021/06/14 05:10:09;;;;;;;;;9.00;8.75;;;;;;;;4998916;28;9068;-82
2021/06/14 05:12:36;;;;;;;;;10.00;7.50;;;;;;;;5005832;28;8876;-81
2021/06/14 05:15:05;;;;;;;;;11.33;10.00;;;;;;;;5004722;28;8870;-85
2021/06/14 05:17:32;;;;;;;;;10.25;10.25;;;;;;;;5009997;28;8975;-81
2021/06/14 05:19:59;;;;;;;;;10.50;10.50;;;;;;;;5008069;28;8888;-83
2021/06/14 05:22:26;;;;;;;;;13.00;11.75;;;;;;;;5002821;28;8889;-86
2021/06/14 05:24:55;;;;;;;;;10.50;10.50;;;;;;;;5007660;28;8868;-84
2021/06/14 05:27:23;;;;;;;;;11.00;11.00;;;;;;;;5000454;28;8852;-84
2021/06/14 05:29:50;;;;;;;;;11.75;10.75;;;;;;;;5003685;28;8888;-86
2021/06/14 05:32:18;;;;;;;;;8.75;8.00;;;;;;;;5006466;28;8825;-81
2021/06/14 05:34:45;;;;;;;;;12.75;12.50;;;;;;;;5002724;28;8890;-79
2021/06/14 05:37:12;;;;;;;;;8.75;8.75;;;;;;;;5005615;28;8864;-79
2021/06/14 05:39:39;;;;;;;;;11.75;10.00;;;;;;;;5004594;28;8890;-79
2021/06/14 05:42:08;;;;;;;;;12.00;9.75;;;;;;;;5005571;28;8884;-82
2021/06/14 05:44:36;;;;;;;;;10.25;9.50;;;;;;;;5006440;28;8868;-77
2021/06/14 05:47:03;;;;;;;;;15.75;11.50;;;;;;;;5005868;28;8994;-81
2021/06/14 05:49:30;;;;;;;;;12.00;10.75;;;;;;;;5006908;28;8893;-76
2021/06/14 05:51:59;;;;;;;;;9.75;9.75;;;;;;;;5005333;28;8922;-82
2021/06/14 05:54:26;;;;;;;;;14.75;13.00;;;;;;;;5006066;28;8843;-78
2021/06/14 05:56:54;;;;;;;;;8.00;8.00;;;;;;;;5003026;28;8998;-81
2021/06/14 05:59:23;;;;;;;;;8.00;8.00;;;;;;;;5005763;28;8964;-75
2021/06/14 06:01:50;;;;;;;;;15.25;13.75;;;;;;;;5003809;28;8863;-75
2021/06/14 06:04:19;;;;;;;;;9.00;7.00;;;;;;;;5005680;28;8896;-76
2021/06/14 06:06:46;;;;;;;;;10.50;10.50;;;;;;;;5004613;28;8904;-74
2021/06/14 06:09:14;;;;;;;;;13.75;11.25;;;;;;;;5002824;28;8894;-75
2021/06/14 06:11:41;;;;;;;;;10.25;10.25;;;;;;;;5006217;28;8987;-82
2021/06/14 06:14:08;;;;;;;;;11.50;10.00;;;;;;;;5004750;28;8894;-85
2021/06/14 06:16:37;;;;;;;;;10.25;8.50;;;;;;;;5005412;28;8900;-72
2021/06/14 06:19:04;;;;;;;;;10.25;10.25;;;;;;;;5005070;28;8876;-74
2021/06/14 06:21:31;;;;;;;;;10.75;10.50;;;;;;;;5002555;28;8860;-72
2021/06/14 06:23:58;;;;;;;;;10.25;9.00;;;;;;;;5004772;28;8860;-72
2021/06/14 06:26:26;;;;;;;;;9.25;9.25;;;;;;;;4998496;28;8885;-73
2021/06/14 06:28:53;;;;;;;;;8.75;8.75;;;;;;;;5005331;28;8963;-71
2021/06/14 06:31:21;;;;;;;;;11.00;9.00;;;;;;;;5004231;28;8844;-76
2021/06/14 06:33:51;;;;;;;;;11.75;9.75;;;;;;;;5006014;28;8897;-72
2021/06/14 06:36:18;;;;;;;;;7.50;6.25;;;;;;;;5004154;28;8864;-73
2021/06/14 06:38:45;;;;;;;;;11.75;7.25;;;;;;;;5005315;28;8875;-74
2021/06/14 06:41:12;;;;;;;;;7.00;7.00;;;;;;;;5003462;28;8878;-71
2021/06/14 06:43:40;;;;;;;;;9.50;9.50;;;;;;;;5004155;28;8876;-82
2021/06/14 06:46:09;;;;;;;;;9.75;9.25;;;;;;;;5004173;28;9006;-77
2021/06/14 06:48:36;;;;;;;;;8.00;8.00;;;;;;;;5003626;28;8867;-81
2021/06/14 06:51:06;;;;;;;;;8.75;8.00;;;;;;;;5003513;28;8867;-80
2021/06/14 06:53:36;;;;;;;;;8.00;8.00;;;;;;;;5003624;28;8880;-77
2021/06/14 06:56:05;;;;;;;;;7.00;6.50;;;;;;;;5000437;28;8874;-80
2021/06/14 06:58:33;;;;;;;;;10.00;9.50;;;;;;;;5001596;28;8983;-79
2021/06/14 07:01:00;;;;;;;;;7.25;7.25;;;;;;;;5001900;28;8816;-79
2021/06/14 07:03:27;;;;;;;;;7.00;7.00;;;;;;;;5000332;28;8864;-82
2021/06/14 07:05:55;;;;;;;;;7.00;7.00;;;;;;;;5002206;28;8868;-78
2021/06/14 07:08:24;;;;;;;;;9.00;9.00;;;;;;;;5000091;28;8872;-78
2021/06/14 07:10:52;;;;;;;;;8.50;8.50;;;;;;;;5003028;28;8893;-78
2021/06/14 07:13:19;;;;;;;;;7.00;7.00;;;;;;;;5001622;28;8872;-82
2021/06/14 07:15:49;;;;;;;;;8.50;8.50;;;;;;;;5001749;28;8886;-82
2021/06/14 07:18:16;;;;;;;;;7.75;7.00;;;;;;;;5004805;28;8938;-81
2021/06/14 07:20:43;;;;;;;;;5.50;5.50;;;;;;;;5003759;28;8862;-81
2021/06/14 07:23:14;;;;;;;;;12.00;10.00;;;;;;;;5003477;28;8978;-80
2021/06/14 07:25:43;;;;;;;;;8.00;8.00;;;;;;;;5002137;28;8986;-80
2021/06/14 07:28:10;;;;;;;;;6.75;6.75;;;;;;;;5002994;28;8868;-82
2021/06/14 07:30:37;;;;;;;;;8.00;6.50;;;;;;;;5002701;28;8998;-84
2021/06/14 07:33:05;;;;;;;;;7.25;7.25;;;;;;;;5002441;28;8888;-85
2021/06/14 07:35:32;;;;;;;;;5.80;5.80;;;;;;;;5001440;28;8990;-81
2021/06/14 07:38:00;;;;;;;;;7.00;7.00;;;;;;;;4999379;28;9661;-82
2021/06/14 07:40:28;;;;;;;;;5.40;5.40;;;;;;;;5003092;28;8876;-83
2021/06/14 07:42:57;;;;;;;;;7.60;6.80;;;;;;;;5003512;28;8895;-83
2021/06/14 07:45:25;;;;;;;;;5.80;5.80;;;;;;;;5001032;28;9575;-80
2021/06/14 07:47:52;;;;;;;;;6.00;6.00;;;;;;;;5005315;28;8891;-86
2021/06/14 07:50:20;;;;;;;;;5.60;5.60;;;;;;;;5007184;28;8879;-84
2021/06/14 07:52:48;;;;;;;;;9.60;7.20;;;;;;;;5007528;28;8874;-87
2021/06/14 07:55:16;;;;;;;;;6.00;6.00;;;;;;;;5009925;28;8868;-83
2021/06/14 07:57:43;;;;;;;;;7.40;6.60;;;;;;;;5002979;28;8864;-85
2021/06/14 08:00:13;;;;;;;;;7.00;7.00;;;;;;;;4997449;28;8890;-87
2021/06/14 08:02:41;;;;;;;;;8.00;8.00;;;;;;;;5001092;28;9013;-86
2021/06/14 08:05:10;;;;;;;;;7.20;7.20;;;;;;;;5000238;28;9012;-82
2021/06/14 08:07:38;;;;;;;;;6.60;6.60;;;;;;;;4999311;28;8906;-80
2021/06/14 08:10:07;;;;;;;;;4.60;4.60;;;;;;;;5001518;28;9365;-88
2021/06/14 08:12:39;;;;;;;;;7.00;7.00;;;;;;;;4999512;28;8899;-87
2021/06/14 08:15:08;;;;;;;;;7.00;7.00;;;;;;;;5003190;28;8891;-83
2021/06/14 08:17:37;;;;;;;;;7.20;7.00;;;;;;;;5004282;28;8894;-86
2021/06/14 08:20:09;;;;;;;;;6.80;5.40;;;;;;;;5002784;28;8867;-78
2021/06/14 08:25:03;;;;;;;;;5.80;5.80;;;;;;;;5000429;28;8895;-77
2021/06/14 08:25:27;;;;;;;;;7.60;6.20;;;;;;;;4998512;28;8888;-81
2021/06/14 08:27:54;;;;;;;;;6.00;6.00;;;;;;;;5003516;28;8900;-85
2021/06/14 08:30:24;;;;;;;;;4.80;4.80;;;;;;;;4999809;28;8872;-86
2021/06/14 08:32:53;;;;;;;;;5.00;5.00;;;;;;;;5003256;28;8912;-84
2021/06/14 08:35:22;;;;;;;;;9.20;7.20;;;;;;;;4999904;28;8856;-87
2021/06/14 08:37:51;;;;;;;;;6.00;5.60;;;;;;;;5002800;28;8922;-85
2021/06/14 08:40:22;;;;;;;;;7.60;6.20;;;;;;;;5001836;28;8872;-83
2021/06/14 08:42:50;;;;;;;;;11.80;10.80;;;;;;;;5004932;28;8908;-84
2021/06/14 08:45:18;;;;;;;;;5.40;5.00;;;;;;;;4998493;28;9017;-82
2021/06/14 08:47:50;;;;;;;;;5.00;5.00;;;;;;;;4995407;28;8860;-85
2021/06/14 08:50:21;;;;;;;;;4.00;4.00;;;;;;;;4994854;28;9680;-87
2021/06/14 08:52:51;;;;;;;;;5.80;4.00;;;;;;;;5004426;28;8876;-82
2021/06/14 08:55:18;;;;;;;;;7.80;5.80;;;;;;;;5001258;28;8906;-83
2021/06/14 08:57:46;;;;;;;;;3.00;3.00;;;;;;;;5002032;28;9017;-85
2021/06/14 09:00:17;;;;;;;;;5.20;5.20;;;;;;;;5002578;28;8864;-84
2021/06/14 09:02:45;;;;;;;;;5.00;5.00;;;;;;;;5003521;28;9000;-86
2021/06/14 09:05:15;;;;;;;;;3.20;3.20;;;;;;;;4999429;28;9013;-86
2021/06/14 09:07:44;;;;;;;;;4.00;4.00;;;;;;;;5000864;28;8852;-85
2021/06/14 09:10:25;;;;;;;;;4.80;4.40;;;;;;;;5003019;28;8887;-86
2021/06/14 09:12:52;;;;;;;;;4.00;4.00;;;;;;;;5003045;28;8892;-80
2021/06/14 09:15:24;;;;;;;;;4.40;4.20;;;;;;;;5002844;28;8876;-84
2021/06/14 09:17:54;;;;;;;;;4.00;4.00;;;;;;;;5001483;28;8896;-81
2021/06/14 09:20:24;;;;;;;;;3.80;3.80;;;;;;;;5002188;28;8876;-84
2021/06/14 09:22:53;;;;;;;;;4.20;4.20;;;;;;;;5006343;28;8910;-83
2021/06/14 09:25:21;;;;;;;;;3.60;3.60;;;;;;;;5001938;28;8864;-82
2021/06/14 09:27:49;;;;;;;;;4.60;4.60;;;;;;;;5005538;28;8987;-80
2021/06/14 09:30:21;;;;;;;;;5.00;5.00;;;;;;;;5005007;28;8825;-85
2021/06/14 09:32:57;;;;;;;;;3.00;3.00;;;;;;;;5006950;28;8872;-81
2021/06/14 09:35:27;;;;;;;;;3.00;3.00;;;;;;;;5004498;28;8864;-83
2021/06/14 09:38:03;;;;;;;;;3.40;3.40;;;;;;;;5006862;28;9007;-82
2021/06/14 09:40:32;;;;;;;;;4.80;4.80;;;;;;;;5002048;28;8848;-80
2021/06/14 09:43:00;;;;;;;;;4.00;4.00;;;;;;;;5006566;28;8907;-80
2021/06/14 09:45:27;;;;;;;;;4.00;4.00;;;;;;;;5006770;28;8853;-80
2021/06/14 09:47:55;;;;;;;;;2.40;2.40;;;;;;;;5006947;28;8872;-79
2021/06/14 09:50:27;;;;;;;;;4.40;4.40;;;;;;;;5003735;28;9665;-78
2021/06/14 09:53:12;;;;;;;;;2.40;2.40;;;;;;;;5005956;28;8868;-81
2021/06/14 09:55:40;;;;;;;;;4.60;4.60;;;;;;;;4999648;28;8865;-79
2021/06/14 09:58:20;;;;;;;;;3.60;3.60;;;;;;;;5005536;28;8859;-82
2021/06/14 10:00:53;;;;;;;;;4.00;4.00;;;;;;;;5000949;28;8853;-80
2021/06/14 10:03:21;;;;;;;;;2.00;2.00;;;;;;;;5006245;28;8892;-82
2021/06/14 10:05:50;;;;;;;;;4.00;4.00;;;;;;;;5000627;28;8946;-80
2021/06/14 10:08:29;;;;;;;;;4.60;4.60;;;;;;;;5002758;28;8872;-82
2021/06/14 10:11:08;;;;;;;;;3.60;3.40;;;;;;;;5006906;28;8856;-77
2021/06/14 10:13:39;;;;;;;;;3.00;3.00;;;;;;;;5001401;28;8883;-84
2021/06/14 10:16:08;;;;;;;;;4.40;4.40;;;;;;;;5004793;28;8896;-85
2021/06/14 10:18:38;;;;;;;;;3.20;3.20;;;;;;;;5004239;28;9641;-83
2021/06/14 10:21:07;;;;;;;;;4.60;4.60;;;;;;;;5006800;28;8906;-86
2021/06/14 10:23:37;;;;;;;;;4.00;4.00;;;;;;;;5004288;28;8892;-77
2021/06/14 10:26:04;;;;;;;;;2.40;2.40;;;;;;;;5005659;28;9006;-81
2021/06/14 10:28:32;;;;;;;;;3.00;2.00;;;;;;;;5002021;28;8966;-84
2021/06/14 10:31:01;;;;;;;;;6.40;5.00;;;;;;;;5000895;28;8812;-87
2021/06/14 10:33:31;;;;;;;;;4.00;2.00;;;;;;;;4998224;28;8886;-82
2021/06/14 10:35:58;;;;;;;;;3.40;3.40;;;;;;;;5001686;28;8902;-79
2021/06/14 10:38:25;;;;;;;;;5.20;4.80;;;;;;;;5004018;28;9011;-85
2021/06/14 10:40:55;;;;;;;;;3.40;3.40;;;;;;;;5002255;28;8880;-83
2021/06/14 10:43:27;;;;;;;;;2.80;2.80;;;;;;;;5004802;28;8868;-82
2021/06/14 10:45:56;;;;;;;;;2.20;2.20;;;;;;;;5003565;28;8872;-84
2021/06/14 10:48:29;;;;;;;;;3.20;3.20;;;;;;;;5004040;28;8879;-84
2021/06/14 10:50:58;;;;;;;;;2.00;2.00;;;;;;;;4997695;28;8865;-92
2021/06/14 10:53:27;;;;;;;;;6.00;4.00;;;;;;;;5003963;28;8978;-83
2021/06/14 10:55:57;;;;;;;;;3.00;3.00;;;;;;;;5004340;28;8864;-85
2021/06/14 10:58:27;;;;;;;;;4.00;4.00;;;;;;;;5002255;28;8872;-80
2021/06/14 11:01:09;;;;;;;;;2.00;2.00;;;;;;;;5003014;28;8800;-84
2021/06/14 11:03:43;;;;;;;;;3.40;3.40;;;;;;;;5005521;28;8876;-83
2021/06/14 11:06:22;;;;;;;;;3.00;3.00;;;;;;;;5000297;28;9007;-82
2021/06/14 11:09:06;;;;;;;;;4.00;4.00;;;;;;;;5006471;28;8959;-79
2021/06/14 11:11:47;;;;;;;;;2.20;2.20;;;;;;;;5004222;28;8946;-77
2021/06/14 11:14:15;;;;;;;;;4.00;4.00;;;;;;;;5000868;28;8988;-77
2021/06/14 11:16:42;;;;;;;;;2.80;2.80;;;;;;;;4999594;28;8890;-82
2021/06/14 11:19:12;;;;;;;;;2.00;2.00;;;;;;;;5002444;28;8927;-81
2021/06/14 11:21:40;;;;;;;;;2.40;2.40;;;;;;;;5004597;28;8884;-86
2021/06/14 11:24:10;;;;;;;;;3.40;2.40;;;;;;;;5000668;28;8872;-79
2021/06/14 11:26:38;;;;;;;;;4.40;2.80;;;;;;;;5003393;28;8864;-84
2021/06/14 11:29:16;;;;;;;;;3.20;3.20;;;;;;;;5002334;28;8990;-80
2021/06/14 11:31:56;;;;;;;;;4.00;3.40;;;;;;;;5001392;28;8824;-82
2021/06/14 11:34:23;;;;;;;;;3.00;3.00;;;;;;;;5004726;28;9018;-76
2021/06/14 11:36:58;;;;;;;;;1.20;1.20;;;;;;;;4999251;28;8958;-81
2021/06/14 11:39:27;;;;;;;;;3.00;3.00;;;;;;;;5001173;28;8876;-79
2021/06/14 11:41:56;;;;;;;;;3.00;3.00;;;;;;;;5001789;28;8876;-78
2021/06/14 11:44:28;;;;;;;;;3.40;3.00;;;;;;;;5011270;28;8872;-94
2021/06/14 11:46:57;;;;;;;;;3.40;2.20;;;;;;;;5005852;28;8848;-90
2021/06/14 11:49:33;;;;;;;;;3.00;3.00;;;;;;;;5006007;28;8900;-81
2021/06/14 11:52:01;;;;;;;;;3.00;3.00;;;;;;;;5000596;28;8856;-82
2021/06/14 11:54:29;;;;;;;;;2.60;2.60;;;;;;;;4997012;28;8967;-78
2021/06/14 11:56:59;;;;;;;;;2.40;2.40;;;;;;;;5004591;28;8994;-81
2021/06/14 11:59:33;;;;;;;;;1.80;1.80;;;;;;;;5005323;28;8937;-89
2021/06/14 12:02:00;;;;;;;;;2.20;2.20;;;;;;;;5005300;28;8832;-93
2021/06/14 12:04:28;;;;;;;;;3.80;3.80;;;;;;;;5004263;28;8848;-83
2021/06/14 12:06:57;;;;;;;;;2.40;2.40;;;;;;;;5002918;28;9657;-89
2021/06/14 12:09:27;;;;;;;;;5.40;3.60;;;;;;;;5004291;28;8848;-87
2021/06/14 12:12:02;;;;;;;;;4.00;4.00;;;;;;;;5003312;28;9006;-84
2021/06/14 12:14:32;;;;;;;;;4.00;4.00;;;;;;;;5002210;28;8939;-88
2021/06/14 12:17:02;;;;;;;;;5.00;3.00;;;;;;;;5001945;28;9015;-89
2021/06/14 12:19:32;;;;;;;;;3.60;2.80;;;;;;;;5005852;28;8898;-84
2021/06/14 12:22:04;;;;;;;;;2.40;2.40;;;;;;;;4998046;28;8872;-88
2021/06/14 12:24:33;;;;;;;;;3.60;2.60;;;;;;;;5004974;28;8949;-88
2021/06/14 12:27:04;;;;;;;;;2.60;2.60;;;;;;;;5004493;28;8902;-88
2021/06/14 12:29:34;;;;;;;;;4.00;4.00;;;;;;;;4996944;28;8986;-88
2021/06/14 12:32:03;;;;;;;;;3.00;3.00;;;;;;;;5005287;28;8812;-87
2021/06/14 12:34:31;;;;;;;;;1.80;1.80;;;;;;;;5003987;28;8910;-86
2021/06/14 12:37:05;;;;;;;;;4.60;3.60;;;;;;;;5004370;28;8902;-89
2021/06/14 12:39:33;;;;;;;;;4.40;4.40;;;;;;;;5001867;28;8905;-88
2021/06/14 12:42:00;;;;;;;;;3.00;3.00;;;;;;;;5000853;28;8895;-87
2021/06/14 12:44:28;;;;;;;;;2.20;2.20;;;;;;;;5004856;28;8840;-88
2021/06/14 12:46:57;;;;;;;;;5.40;4.60;;;;;;;;5003137;28;9470;-88
2021/06/14 12:49:27;;;;;;;;;4.80;3.00;;;;;;;;4999269;28;8892;-87
2021/06/14 12:51:55;;;;;;;;;2.60;2.60;;;;;;;;5003219;28;8890;-88
2021/06/14 12:54:24;;;;;;;;;2.60;2.60;;;;;;;;4997743;28;9626;-87
2021/06/14 12:56:56;;;;;;;;;3.80;3.80;;;;;;;;5006671;28;8880;-87
2021/06/14 12:59:24;;;;;;;;;5.60;3.00;;;;;;;;5008763;28;8895;-89
2021/06/14 13:01:51;;;;;;;;;3.00;3.00;;;;;;;;5008591;28;8836;-89
2021/06/14 13:04:20;;;;;;;;;1.00;1.00;;;;;;;;4999147;28;8902;-86
2021/06/14 13:06:48;;;;;;;;;2.20;2.20;;;;;;;;5008194;28;8895;-89
2021/06/14 13:09:15;;;;;;;;;4.00;4.00;;;;;;;;5007569;28;8864;-89
2021/06/14 13:11:44;;;;;;;;;3.20;3.20;;;;;;;;5009105;28;9002;-89
2021/06/14 13:14:12;;;;;;;;;1.80;1.80;;;;;;;;5003175;28;8863;-88
2021/06/14 13:16:46;;;;;;;;;3.00;3.00;;;;;;;;5006010;28;8888;-89
2021/06/14 13:19:14;;;;;;;;;3.00;3.00;;;;;;;;5009630;28;8998;-89
2021/06/14 13:21:43;;;;;;;;;2.40;2.40;;;;;;;;5005000;28;8859;-86
2021/06/14 13:24:12;;;;;;;;;2.60;2.60;;;;;;;;4990299;28;8883;-87
2021/06/14 13:26:41;;;;;;;;;7.00;5.00;;;;;;;;5014869;28;8979;-86
2021/06/14 13:29:15;;;;;;;;;3.60;3.60;;;;;;;;5011565;28;9508;-88
2021/06/14 13:31:43;;;;;;;;;6.00;6.00;;;;;;;;5009092;28;8919;-87
2021/06/14 13:34:22;;;;;;;;;4.20;3.00;;;;;;;;5007268;28;8900;-88
2021/06/14 13:36:55;;;;;;;;;4.00;4.00;;;;;;;;5005330;28;8870;-89
2021/06/14 13:39:27;;;;;;;;;3.80;2.40;;;;;;;;5008230;28;8813;-86
2021/06/14 13:42:02;;;;;;;;;3.80;3.80;;;;;;;;5008492;28;8852;-90
2021/06/14 13:44:29;;;;;;;;;3.60;3.60;;;;;;;;5007737;28;8852;-83
2021/06/14 13:46:56;;;;;;;;;3.00;3.00;;;;;;;;5003553;28;9082;-89
2021/06/14 13:49:28;;;;;;;;;3.40;3.40;;;;;;;;5007331;28;8871;-89
2021/06/14 13:51:59;;;;;;;;;4.00;3.20;;;;;;;;5007126;28;8872;-90
2021/06/14 13:54:27;;;;;;;;;2.00;2.00;;;;;;;;5006219;28;8882;-89
2021/06/14 13:56:54;;;;;;;;;3.40;3.40;;;;;;;;5006136;28;8880;-88
2021/06/14 13:59:22;;;;;;;;;2.00;2.00;;;;;;;;5008761;28;9634;-89
2021/06/14 14:01:50;;;;;;;;;4.00;4.00;;;;;;;;5007448;28;8836;-89
2021/06/14 14:04:20;;;;;;;;;3.40;3.40;;;;;;;;5005853;28;8879;-87
2021/06/14 14:06:47;;;;;;;;;2.20;2.20;;;;;;;;5003507;28;8994;-89
2021/06/14 14:09:16;;;;;;;;;2.60;2.60;;;;;;;;5001240;28;9009;-89
2021/06/14 14:11:46;;;;;;;;;3.20;3.20;;;;;;;;5002586;28;8990;-87
2021/06/14 14:14:14;;;;;;;;;2.20;2.20;;;;;;;;5003640;28;9669;-78
2021/06/14 14:16:44;;;;;;;;;4.20;3.60;;;;;;;;5005506;28;8884;-89
2021/06/14 14:19:13;;;;;;;;;2.60;2.60;;;;;;;;5005007;28;8910;-91
2021/06/14 14:21:41;;;;;;;;;2.00;2.00;;;;;;;;4999427;28;8883;-87
2021/06/14 14:24:09;;;;;;;;;1.40;1.40;;;;;;;;5006640;28;8880;-85
2021/06/14 14:26:41;;;;;;;;;2.40;2.40;;;;;;;;5005039;28;8946;-86
2021/06/14 14:29:14;;;;;;;;;3.20;1.20;;;;;;;;4995950;28;8888;-85
2021/06/14 14:31:45;;;;;;;;;2.00;2.00;;;;;;;;5002951;28;8821;-85
2021/06/14 14:34:12;;;;;;;;;2.00;2.00;;;;;;;;5005404;28;8938;-86
2021/06/14 14:36:45;;;;;;;;;1.00;1.00;;;;;;;;5004185;28;8906;-82
2021/06/14 14:39:16;;;;;;;;;1.00;1.00;;;;;;;;5006682;28;8878;-86
2021/06/14 14:41:46;;;;;;;;;1.60;1.60;;;;;;;;5005397;28;8908;-85
2021/06/14 14:44:16;;;;;;;;;4.60;2.80;;;;;;;;5004200;28;8876;-85
2021/06/14 14:46:44;;;;;;;;;2.20;2.20;;;;;;;;5006192;28;8987;-84
2021/06/14 14:49:13;;;;;;;;;2.20;2.20;;;;;;;;5002897;28;8852;-83
2021/06/14 14:51:40;;;;;;;;;2.80;2.80;;;;;;;;5005724;28;8998;-85
2021/06/14 14:54:10;;;;;;;;;3.00;3.00;;;;;;;;5003201;28;8872;-81
2021/06/14 14:56:37;;;;;;;;;2.00;2.00;;;;;;;;5004922;28;8910;-83
2021/06/14 14:59:07;;;;;;;;;5.00;3.40;;;;;;;;5006500;28;9564;-84
2021/06/14 15:01:36;;;;;;;;;2.20;2.20;;;;;;;;5005268;28;8895;-85
2021/06/14 15:04:03;;;;;;;;;4.00;4.00;;;;;;;;5006073;28;8879;-92
2021/06/14 15:06:31;;;;;;;;;2.00;2.00;;;;;;;;5004301;28;8898;-91